Alamo, North Dakota
Current Conditions -  °F | °C
As of 4:15 AM on Thursday 29 Jan 2015 (Local Time) from KD50 Reporting Station
Overcast Overcast  
Wind Chill: 11°   Ceiling: 1500
Heat Index: 25°   Visibility: 10mi
Dew Point: 23°   Wind: 17mph
Humidity: 93%   Direction: 300°WNW
Pressure: 30.4"   Gusts: NA
Location:  48.58°N, 103.47°W
Report Text: KD50 291015Z AUTO 30015KT 10SM OVC015 M04/M05 A3040 RMK AO2
Loading
Personal Weather Stations






























Interactive Weather Map New forecast layout! Learn more

10-Day Weather Forecast

Advertisements
Track Severe Weather on mobile